createdAt,value
2018-09-23T00:00:24.527Z,1009.82
2018-09-23T00:01:24.555Z,1009.79
2018-09-23T00:02:24.586Z,1009.75
2018-09-23T00:03:24.607Z,1009.73
2018-09-23T00:04:24.633Z,1009.66
2018-09-23T00:05:24.659Z,1009.74
2018-09-23T00:06:24.687Z,1009.65
2018-09-23T00:07:24.713Z,1009.67
2018-09-23T00:08:24.738Z,1009.67
2018-09-23T00:09:24.771Z,1009.59
2018-09-23T00:10:24.791Z,1009.58
2018-09-23T00:11:24.818Z,1009.54
2018-09-23T00:12:24.845Z,1009.54
2018-09-23T00:13:24.870Z,1009.51
2018-09-23T00:14:24.898Z,1009.49
2018-09-23T00:15:24.923Z,1009.46
2018-09-23T00:16:24.953Z,1009.44
2018-09-23T00:17:24.979Z,1009.45
2018-09-23T00:18:25.004Z,1009.44
2018-09-23T00:19:25.031Z,1009.45
2018-09-23T00:20:25.058Z,1009.46
2018-09-23T00:21:25.083Z,1009.45
2018-09-23T00:22:25.112Z,1009.49
2018-09-23T00:23:25.135Z,1009.47
2018-09-23T00:24:25.161Z,1009.45
2018-09-23T00:25:25.190Z,1009.46
2018-09-23T00:26:25.215Z,1009.40
2018-09-23T00:27:25.242Z,1009.43
2018-09-23T00:28:25.269Z,1009.39
2018-09-23T00:29:25.295Z,1009.41
2018-09-23T00:30:25.322Z,1009.40
2018-09-23T00:31:25.346Z,1009.37
2018-09-23T00:32:25.373Z,1009.29
2018-09-23T00:33:25.400Z,1009.34
2018-09-23T00:34:25.447Z,1009.37
2018-09-23T00:35:25.456Z,1009.37
2018-09-23T00:36:25.481Z,1009.48
2018-09-23T00:37:25.508Z,1009.43
2018-09-23T00:38:25.532Z,1009.33
2018-09-23T00:39:25.559Z,1009.35
2018-09-23T00:40:25.589Z,1009.39
2018-09-23T00:41:25.612Z,1009.40
2018-09-23T00:42:25.638Z,1009.38
2018-09-23T00:43:25.663Z,1009.39
2018-09-23T00:44:25.688Z,1009.40
2018-09-23T00:45:25.717Z,1009.40
2018-09-23T00:46:25.743Z,1009.43
2018-09-23T00:47:25.769Z,1009.40
2018-09-23T00:48:25.801Z,1009.44
2018-09-23T00:49:25.824Z,1009.44
2018-09-23T00:50:25.849Z,1009.41
2018-09-23T00:51:25.873Z,1009.40
2018-09-23T00:52:25.900Z,1009.39
2018-09-23T00:53:25.927Z,1009.36
2018-09-23T00:54:25.956Z,1009.34
2018-09-23T00:55:25.980Z,1009.32
2018-09-23T00:56:26.007Z,1009.33
2018-09-23T00:57:26.033Z,1009.26
2018-09-23T00:58:26.059Z,1009.27
2018-09-23T00:59:26.084Z,1009.24
2018-09-23T01:00:26.112Z,1009.22
2018-09-23T01:01:26.138Z,1009.23
2018-09-23T01:02:26.166Z,1009.18
2018-09-23T01:03:26.192Z,1009.22
2018-09-23T01:04:26.216Z,1009.16
2018-09-23T01:05:26.243Z,1009.17
2018-09-23T01:06:26.270Z,1009.12
2018-09-23T01:07:26.294Z,1009.08
2018-09-23T01:08:26.324Z,1009.02
2018-09-23T01:09:26.352Z,1009.02
2018-09-23T01:10:26.375Z,1009.01
2018-09-23T01:11:26.401Z,1009.05
2018-09-23T01:12:26.429Z,1009.00
2018-09-23T01:13:26.455Z,1008.94
2018-09-23T01:14:26.482Z,1008.93
2018-09-23T01:15:26.509Z,1008.95
2018-09-23T01:16:26.536Z,1008.93
2018-09-23T01:17:26.560Z,1008.91
2018-09-23T01:18:26.587Z,1008.95
2018-09-23T01:19:26.620Z,1008.92
2018-09-23T01:20:26.641Z,1008.88
2018-09-23T01:21:26.667Z,1008.86
2018-09-23T01:22:26.693Z,1008.89
2018-09-23T01:23:26.720Z,1008.88
2018-09-23T01:24:26.764Z,1008.81
2018-09-23T01:25:26.772Z,1008.87
2018-09-23T01:26:26.804Z,1008.85
2018-09-23T01:27:26.826Z,1008.79
2018-09-23T01:28:26.851Z,1008.80
2018-09-23T01:29:26.877Z,1008.81
2018-09-23T01:30:26.906Z,1008.78
2018-09-23T01:31:26.930Z,1008.80
2018-09-23T01:32:26.959Z,1008.78
2018-09-23T01:33:26.989Z,1008.74
2018-09-23T01:34:27.012Z,1008.75
2018-09-23T01:35:27.036Z,1008.72
2018-09-23T01:36:27.064Z,1008.68
2018-09-23T01:37:27.092Z,1008.67
2018-09-23T01:38:27.119Z,1008.61
2018-09-23T01:39:27.145Z,1008.57
2018-09-23T01:40:27.169Z,1008.58
2018-09-23T01:41:27.196Z,1008.51
2018-09-23T01:42:27.224Z,1008.50
2018-09-23T01:43:27.250Z,1008.47
2018-09-23T01:44:27.277Z,1008.43
2018-09-23T01:45:27.302Z,1008.47
2018-09-23T01:46:27.328Z,1008.43
2018-09-23T01:47:27.354Z,1008.43
2018-09-23T01:48:27.381Z,1008.43
2018-09-23T01:49:27.407Z,1008.41
2018-09-23T01:50:27.436Z,1008.42
2018-09-23T01:51:27.462Z,1008.38
2018-09-23T01:52:27.489Z,1008.35
2018-09-23T01:53:27.515Z,1008.39
2018-09-23T01:54:27.541Z,1008.40
2018-09-23T01:55:27.569Z,1008.39
2018-09-23T01:56:27.592Z,1008.40
2018-09-23T01:57:27.621Z,1008.36
2018-09-23T01:58:27.647Z,1008.39
2018-09-23T01:59:27.672Z,1008.39
2018-09-23T02:00:27.698Z,1008.33
2018-09-23T02:01:27.725Z,1008.29
2018-09-23T02:02:27.754Z,1008.32
2018-09-23T02:03:27.777Z,1008.29
2018-09-23T02:04:27.805Z,1008.29
2018-09-23T02:05:27.832Z,1008.33
2018-09-23T02:06:27.856Z,1008.32
2018-09-23T02:07:27.886Z,1008.30
2018-09-23T02:08:27.912Z,1008.29
2018-09-23T02:09:27.936Z,1008.27
2018-09-23T02:10:27.964Z,1008.26
2018-09-23T02:11:27.989Z,1008.24
2018-09-23T02:12:28.016Z,1008.27
2018-09-23T02:13:28.044Z,1008.27
2018-09-23T02:14:28.069Z,1008.24
2018-09-23T02:15:28.095Z,1008.22
2018-09-23T02:16:28.121Z,1008.17
2018-09-23T02:17:28.150Z,1008.14
2018-09-23T02:18:28.177Z,1008.15
2018-09-23T02:19:28.200Z,1008.11
2018-09-23T02:20:28.228Z,1008.15
2018-09-23T02:21:28.254Z,1008.16
2018-09-23T02:22:28.280Z,1008.15
2018-09-23T02:23:28.306Z,1008.12
2018-09-23T02:24:28.335Z,1008.13
2018-09-23T02:25:28.361Z,1008.08
2018-09-23T02:26:28.391Z,1008.10
2018-09-23T02:27:28.413Z,1008.09
2018-09-23T02:28:28.444Z,1008.13
2018-09-23T02:29:28.467Z,1008.07
2018-09-23T02:30:28.498Z,1008.01
2018-09-23T02:31:28.519Z,1007.99
2018-09-23T02:32:28.548Z,1007.99
2018-09-23T02:33:28.572Z,1007.95
2018-09-23T02:34:28.601Z,1007.98
2018-09-23T02:35:28.627Z,1007.87
2018-09-23T02:36:28.652Z,1007.89
2018-09-23T02:37:28.678Z,1007.92
2018-09-23T02:38:28.707Z,1007.90
2018-09-23T02:39:28.731Z,1007.94
2018-09-23T02:40:28.759Z,1007.91
2018-09-23T02:41:28.785Z,1007.86
2018-09-23T02:42:28.812Z,1007.82
2018-09-23T02:43:28.840Z,1007.77
2018-09-23T02:44:28.863Z,1007.75
2018-09-23T02:45:28.895Z,1007.70
2018-09-23T02:46:28.923Z,1007.66
2018-09-23T02:47:28.945Z,1007.68
2018-09-23T02:48:28.972Z,1007.67
2018-09-23T02:49:29.002Z,1007.69
2018-09-23T02:50:29.023Z,1007.67
2018-09-23T02:51:29.051Z,1007.64
2018-09-23T02:52:29.075Z,1007.63
2018-09-23T02:53:29.103Z,1007.58
2018-09-23T02:54:29.129Z,1007.61
2018-09-23T02:55:29.160Z,1007.61
2018-09-23T02:56:29.186Z,1007.57
2018-09-23T02:57:29.208Z,1007.56
2018-09-23T02:58:29.235Z,1007.56
2018-09-23T02:59:29.263Z,1007.61
2018-09-23T03:00:29.288Z,1007.57
2018-09-23T03:01:29.316Z,1007.60
2018-09-23T03:02:29.340Z,1007.53
2018-09-23T03:03:29.366Z,1007.48
2018-09-23T03:04:29.397Z,1007.47
2018-09-23T03:05:29.421Z,1007.40
2018-09-23T03:06:29.448Z,1007.40
2018-09-23T03:07:29.474Z,1007.44
2018-09-23T03:08:29.498Z,1007.45
2018-09-23T03:09:29.528Z,1007.49
2018-09-23T03:10:29.553Z,1007.47
2018-09-23T03:11:29.578Z,1007.41
2018-09-23T03:12:29.604Z,1007.37
2018-09-23T03:13:29.637Z,1007.35
2018-09-23T03:14:29.659Z,1007.31
2018-09-23T03:15:29.684Z,1007.33
2018-09-23T03:16:29.710Z,1007.39
2018-09-23T03:17:29.741Z,1007.31
2018-09-23T03:18:29.763Z,1007.31
2018-09-23T03:19:29.790Z,1007.32
2018-09-23T03:20:29.817Z,1007.28
2018-09-23T03:21:29.842Z,1007.29
2018-09-23T03:22:29.869Z,1007.25
2018-09-23T03:23:29.894Z,1007.25
2018-09-23T03:24:29.921Z,1007.18
2018-09-23T03:25:29.948Z,1007.18
2018-09-23T03:26:29.975Z,1007.11
2018-09-23T03:27:30.001Z,1007.16
2018-09-23T03:28:30.028Z,1007.13
2018-09-23T03:29:30.054Z,1007.18
2018-09-23T03:30:30.081Z,1007.17
2018-09-23T03:31:30.116Z,1007.23
2018-09-23T03:32:30.133Z,1007.22
2018-09-23T03:33:30.161Z,1007.29
2018-09-23T03:34:30.194Z,1007.23
2018-09-23T03:35:30.213Z,1007.25
2018-09-23T03:36:30.238Z,1007.21
2018-09-23T03:37:30.267Z,1007.14
2018-09-23T03:38:30.292Z,1007.08
2018-09-23T03:39:30.323Z,1007.04
2018-09-23T03:40:30.343Z,1006.96
2018-09-23T03:41:30.370Z,1006.95
2018-09-23T03:42:30.398Z,1006.99
2018-09-23T03:43:30.422Z,1006.95
2018-09-23T03:44:30.452Z,1006.91
2018-09-23T03:45:30.476Z,1006.86
2018-09-23T03:46:30.503Z,1006.86
2018-09-23T03:47:30.529Z,1006.75
2018-09-23T03:48:30.556Z,1006.82
2018-09-23T03:49:30.583Z,1006.83
2018-09-23T03:50:30.608Z,1006.79
2018-09-23T03:51:30.637Z,1006.80
2018-09-23T03:52:30.669Z,1006.75
2018-09-23T03:53:30.690Z,1006.76
2018-09-23T03:54:30.715Z,1006.74
2018-09-23T03:55:30.740Z,1006.71
2018-09-23T03:56:30.767Z,1006.67
2018-09-23T03:57:30.796Z,1006.64
2018-09-23T03:58:30.823Z,1006.51
2018-09-23T03:59:30.850Z,1006.48
2018-09-23T04:00:30.892Z,1006.40
2018-09-23T04:01:30.900Z,1006.40
2018-09-23T04:02:30.927Z,1006.37
2018-09-23T04:03:30.954Z,1006.32
2018-09-23T04:04:30.979Z,1006.27
2018-09-23T04:05:31.006Z,1006.23
2018-09-23T04:06:31.032Z,1006.31
2018-09-23T04:07:31.060Z,1006.33
2018-09-23T04:08:31.085Z,1006.28
2018-09-23T04:09:31.113Z,1006.29
2018-09-23T04:10:31.139Z,1006.22
2018-09-23T04:11:31.166Z,1006.25
2018-09-23T04:12:31.195Z,1006.29
2018-09-23T04:13:31.220Z,1006.32
2018-09-23T04:14:31.246Z,1006.35
2018-09-23T04:15:31.271Z,1006.37
2018-09-23T04:16:31.297Z,1006.35
2018-09-23T04:17:31.324Z,1006.41
2018-09-23T04:18:31.391Z,1006.39
2018-09-23T04:19:31.378Z,1006.44
2018-09-23T04:20:31.405Z,1006.44
2018-09-23T04:21:31.431Z,1006.39
2018-09-23T04:22:31.459Z,1006.47
2018-09-23T04:23:31.482Z,1006.49
2018-09-23T04:24:31.511Z,1006.49
2018-09-23T04:25:31.537Z,1006.48
2018-09-23T04:26:31.564Z,1006.43
2018-09-23T04:27:31.591Z,1006.40
2018-09-23T04:28:31.616Z,1006.30
2018-09-23T04:29:31.643Z,1006.34
2018-09-23T04:30:31.670Z,1006.30
2018-09-23T04:31:31.699Z,1006.17
2018-09-23T04:32:31.722Z,1006.20
2018-09-23T04:33:31.750Z,1006.17
2018-09-23T04:34:31.774Z,1006.18
2018-09-23T04:35:31.804Z,1006.15
2018-09-23T04:36:31.831Z,1006.14
2018-09-23T04:37:31.857Z,1006.14
2018-09-23T04:38:31.882Z,1006.16
2018-09-23T04:39:31.908Z,1006.25
2018-09-23T04:40:31.934Z,1006.31
2018-09-23T04:41:31.964Z,1006.38
2018-09-23T04:42:31.988Z,1006.36
2018-09-23T04:43:32.014Z,1006.34
2018-09-23T04:44:32.040Z,1006.38
2018-09-23T04:45:32.073Z,1006.37
2018-09-23T04:46:32.099Z,1006.34
2018-09-23T04:47:32.122Z,1006.32
2018-09-23T04:48:32.164Z,1006.32
2018-09-23T04:49:32.174Z,1006.30
2018-09-23T04:50:32.201Z,1006.28
2018-09-23T04:51:32.228Z,1006.22
2018-09-23T04:52:32.277Z,1006.16
2018-09-23T04:53:32.282Z,1006.11
2018-09-23T04:54:32.307Z,1006.12
2018-09-23T04:55:32.334Z,1006.16
2018-09-23T04:56:32.360Z,1006.15
2018-09-23T04:57:32.387Z,1006.14
2018-09-23T04:58:32.416Z,1006.17
2018-09-23T04:59:32.439Z,1006.20
2018-09-23T05:00:32.467Z,1006.20
2018-09-23T05:01:32.495Z,1006.22
2018-09-23T05:02:32.521Z,1006.21
2018-09-23T05:03:32.548Z,1006.20
2018-09-23T05:04:32.573Z,1006.07
2018-09-23T05:05:32.600Z,1006.08
2018-09-23T05:06:32.627Z,1006.08
2018-09-23T05:07:32.655Z,1006.04
2018-09-23T05:08:32.683Z,1006.02
2018-09-23T05:09:32.709Z,1005.96
2018-09-23T05:10:32.733Z,1005.91
2018-09-23T05:11:32.759Z,1005.88
2018-09-23T05:12:32.789Z,1005.88
2018-09-23T05:13:32.815Z,1005.92
2018-09-23T05:14:32.840Z,1006.00
2018-09-23T05:15:32.868Z,1006.08
2018-09-23T05:16:32.895Z,1006.12
2018-09-23T05:17:32.922Z,1006.15
2018-09-23T05:18:32.948Z,1006.16
2018-09-23T05:19:32.975Z,1006.18
2018-09-23T05:20:33.000Z,1006.17
2018-09-23T05:21:33.029Z,1006.14
2018-09-23T05:22:33.056Z,1006.18
2018-09-23T05:23:33.081Z,1006.20
2018-09-23T05:24:33.109Z,1006.14
2018-09-23T05:25:33.135Z,1006.12
2018-09-23T05:26:33.160Z,1006.13
2018-09-23T05:27:33.188Z,1006.11
2018-09-23T05:28:33.213Z,1006.13
2018-09-23T05:29:33.241Z,1006.15
2018-09-23T05:30:33.267Z,1006.11
2018-09-23T05:31:33.294Z,1006.13
2018-09-23T05:32:33.334Z,1006.11
2018-09-23T05:33:33.349Z,1006.05
2018-09-23T05:34:33.374Z,1006.01
2018-09-23T05:35:33.401Z,1006.03
2018-09-23T05:36:33.430Z,1006.05
2018-09-23T05:37:33.453Z,1006.03
2018-09-23T05:38:33.483Z,1006.02
2018-09-23T05:39:33.508Z,1006.01
2018-09-23T05:40:33.535Z,1006.04
2018-09-23T05:41:33.562Z,1006.00
2018-09-23T05:42:33.587Z,1006.05
2018-09-23T05:43:33.612Z,1006.10
2018-09-23T05:44:33.643Z,1006.07
2018-09-23T05:45:33.668Z,1006.08
2018-09-23T05:46:33.717Z,1006.08
2018-09-23T05:47:33.734Z,1006.09
2018-09-23T05:48:33.748Z,1006.09
2018-09-23T05:49:33.812Z,1006.05
2018-09-23T05:50:34.124Z,1006.05
2018-09-23T05:51:33.828Z,1005.99
2018-09-23T05:52:33.854Z,1005.87
2018-09-23T05:53:33.883Z,1005.83
2018-09-23T05:54:33.927Z,1005.76
2018-09-23T05:55:33.933Z,1005.69
2018-09-23T05:56:33.961Z,1005.70
2018-09-23T05:57:33.986Z,1005.76
2018-09-23T05:58:34.016Z,1005.80
2018-09-23T05:59:34.041Z,1005.74
2018-09-23T06:00:34.066Z,1005.76
2018-09-23T06:01:34.094Z,1005.75
2018-09-23T06:02:34.121Z,1005.68
2018-09-23T06:03:34.147Z,1005.65
2018-09-23T06:04:34.173Z,1005.64
2018-09-23T06:05:34.202Z,1005.62
2018-09-23T06:06:34.229Z,1005.61
2018-09-23T06:07:34.253Z,1005.67
2018-09-23T06:08:34.280Z,1005.63
2018-09-23T06:09:34.307Z,1005.67
2018-09-23T06:10:34.336Z,1005.61
2018-09-23T06:11:34.364Z,1005.67
2018-09-23T06:12:34.388Z,1005.68
2018-09-23T06:13:34.417Z,1005.74
2018-09-23T06:14:34.443Z,1005.76
2018-09-23T06:15:34.467Z,1005.78
2018-09-23T06:16:34.493Z,1005.87
2018-09-23T06:17:34.523Z,1005.94
2018-09-23T06:18:34.591Z,1005.92
2018-09-23T06:19:34.573Z,1005.91
2018-09-23T06:20:34.603Z,1005.82
2018-09-23T06:21:34.627Z,1005.77
2018-09-23T06:22:34.657Z,1005.70
2018-09-23T06:23:34.682Z,1005.70
2018-09-23T06:24:34.709Z,1005.69
2018-09-23T06:25:34.734Z,1005.73
2018-09-23T06:26:34.761Z,1005.75
2018-09-23T06:27:34.789Z,1005.71
2018-09-23T06:28:34.816Z,1005.77
2018-09-23T06:29:34.840Z,1005.80
2018-09-23T06:30:34.870Z,1005.83
2018-09-23T06:31:34.894Z,1005.80
2018-09-23T06:32:34.924Z,1005.78
2018-09-23T06:33:34.948Z,1005.73
2018-09-23T06:34:34.976Z,1005.75
2018-09-23T06:35:35.001Z,1005.75
2018-09-23T06:36:35.028Z,1005.71
2018-09-23T06:37:35.058Z,1005.66
2018-09-23T06:38:35.084Z,1005.67
2018-09-23T06:39:35.111Z,1005.65
2018-09-23T06:40:35.137Z,1005.69
2018-09-23T06:41:35.163Z,1005.67
2018-09-23T06:42:35.193Z,1005.68
2018-09-23T06:43:35.215Z,1005.70
2018-09-23T06:44:35.244Z,1005.64
2018-09-23T06:45:35.283Z,1005.62
2018-09-23T06:46:35.297Z,1005.55
2018-09-23T06:47:35.325Z,1005.48
2018-09-23T06:48:35.350Z,1005.49
2018-09-23T06:49:35.380Z,1005.45
2018-09-23T06:50:35.405Z,1005.49
2018-09-23T06:51:35.432Z,1005.47
2018-09-23T06:52:35.457Z,1005.52
2018-09-23T06:53:35.485Z,1005.55
2018-09-23T06:54:35.512Z,1005.57
2018-09-23T06:55:35.539Z,1005.60
2018-09-23T06:56:35.565Z,1005.66
2018-09-23T06:57:35.594Z,1005.67
2018-09-23T06:58:35.623Z,1005.68
2018-09-23T06:59:35.644Z,1005.75
2018-09-23T07:00:35.673Z,1005.77
2018-09-23T07:01:35.700Z,1005.76
2018-09-23T07:02:35.727Z,1005.71
2018-09-23T07:03:35.755Z,1005.73
2018-09-23T07:04:35.839Z,1005.73
2018-09-23T07:05:35.808Z,1005.61
2018-09-23T07:06:35.857Z,1005.66
2018-09-23T07:07:35.859Z,1005.61
2018-09-23T07:08:35.887Z,1005.51
2018-09-23T07:09:35.913Z,1005.42
2018-09-23T07:10:35.957Z,1005.33
2018-09-23T07:11:35.966Z,1005.32
2018-09-23T07:12:35.993Z,1005.31
2018-09-23T07:13:36.020Z,1005.33
2018-09-23T07:14:36.049Z,1005.38
2018-09-23T07:15:36.122Z,1005.42
2018-09-23T07:16:36.103Z,1005.52
2018-09-23T07:17:36.127Z,1005.57
2018-09-23T07:18:36.155Z,1005.55
2018-09-23T07:19:36.181Z,1005.53
2018-09-23T07:20:36.209Z,1005.53
2018-09-23T07:21:36.235Z,1005.52
2018-09-23T07:22:36.264Z,1005.56
2018-09-23T07:23:36.321Z,1005.63
2018-09-23T07:24:36.317Z,1005.63
2018-09-23T07:25:36.343Z,1005.63
2018-09-23T07:26:36.369Z,1005.55
2018-09-23T07:27:36.395Z,1005.55
2018-09-23T07:28:36.423Z,1005.50
2018-09-23T07:29:36.453Z,1005.44
2018-09-23T07:30:36.479Z,1005.44
2018-09-23T07:31:36.504Z,1005.47
2018-09-23T07:32:36.533Z,1005.49
2018-09-23T07:33:36.560Z,1005.42
2018-09-23T07:34:36.585Z,1005.38
2018-09-23T07:35:36.632Z,1005.39
2018-09-23T07:36:36.681Z,1005.32
2018-09-23T07:37:36.669Z,1005.35
2018-09-23T07:38:36.693Z,1005.28
2018-09-23T07:39:36.825Z,1005.23
2018-09-23T07:40:36.752Z,1005.21
2018-09-23T07:41:36.784Z,1005.21
2018-09-23T07:42:36.801Z,1005.16
2018-09-23T07:43:36.827Z,1005.12
2018-09-23T07:44:36.854Z,1005.05
2018-09-23T07:45:36.886Z,1005.06
2018-09-23T07:46:36.909Z,1005.06
2018-09-23T07:47:36.937Z,1004.98
2018-09-23T07:48:36.963Z,1004.99
2018-09-23T07:49:36.998Z,1004.93
2018-09-23T07:50:37.024Z,1004.95
2018-09-23T07:51:37.046Z,1004.97
2018-09-23T07:52:37.073Z,1004.94
2018-09-23T07:53:37.119Z,1004.92
2018-09-23T07:54:37.126Z,1004.94
2018-09-23T07:55:37.155Z,1004.91
2018-09-23T07:56:37.329Z,1004.88
2018-09-23T07:57:37.210Z,1004.83
2018-09-23T07:58:37.235Z,1004.83
2018-09-23T07:59:37.259Z,1004.91
2018-09-23T08:00:37.307Z,1004.94
2018-09-23T08:01:37.315Z,1004.99
2018-09-23T08:02:37.343Z,1004.99
2018-09-23T08:03:37.460Z,1005.06
2018-09-23T08:04:37.395Z,1005.05
2018-09-23T08:05:37.424Z,1005.03
2018-09-23T08:06:37.452Z,1005.06
2018-09-23T08:07:37.477Z,1005.00
2018-09-23T08:08:37.504Z,1005.00
2018-09-23T08:09:37.531Z,1004.85
2018-09-23T08:10:37.560Z,1004.80
2018-09-23T08:11:37.586Z,1004.88
2018-09-23T08:12:37.649Z,1004.90
2018-09-23T08:13:37.785Z,1004.95
2018-09-23T08:14:38.088Z,1004.89
2018-09-23T08:15:37.696Z,1004.80
2018-09-23T08:16:37.721Z,1004.80
2018-09-23T08:17:37.748Z,1004.81
2018-09-23T08:18:37.776Z,1004.82
2018-09-23T08:19:37.929Z,1004.87
2018-09-23T08:20:37.997Z,1004.92
2018-09-23T08:21:37.857Z,1004.92
2018-09-23T08:22:37.886Z,1004.87
2018-09-23T08:23:37.912Z,1004.87
2018-09-23T08:24:37.938Z,1004.79
2018-09-23T08:25:38.034Z,1004.78
2018-09-23T08:26:38.157Z,1004.73
2018-09-23T08:27:38.020Z,1004.66
2018-09-23T08:28:38.050Z,1004.68
2018-09-23T08:29:38.080Z,1004.69
2018-09-23T08:30:38.103Z,1004.66
2018-09-23T08:31:38.131Z,1004.65
2018-09-23T08:32:38.159Z,1004.65
2018-09-23T08:33:38.185Z,1004.58
2018-09-23T08:34:38.217Z,1004.48
2018-09-23T08:35:38.239Z,1004.44
2018-09-23T08:36:38.265Z,1004.41
2018-09-23T08:37:38.294Z,1004.43
2018-09-23T08:38:38.322Z,1004.50
2018-09-23T08:39:38.346Z,1004.53
2018-09-23T08:40:38.377Z,1004.50
2018-09-23T08:41:38.407Z,1004.46
2018-09-23T08:42:38.428Z,1004.47
2018-09-23T08:43:38.456Z,1004.46
2018-09-23T08:44:38.484Z,1004.49
2018-09-23T08:45:38.509Z,1004.48
2018-09-23T08:46:38.538Z,1004.47
2018-09-23T08:47:38.565Z,1004.49
2018-09-23T08:48:38.592Z,1004.44
2018-09-23T08:49:38.620Z,1004.49
2018-09-23T08:50:38.649Z,1004.45
2018-09-23T08:51:38.682Z,1004.42
2018-09-23T08:52:38.700Z,1004.49
2018-09-23T08:53:38.728Z,1004.53
2018-09-23T08:54:38.756Z,1004.60
2018-09-23T08:55:38.783Z,1004.60
2018-09-23T08:56:38.811Z,1004.63
2018-09-23T08:57:38.840Z,1004.53
2018-09-23T08:58:38.867Z,1004.45
2018-09-23T08:59:38.889Z,1004.41
2018-09-23T09:00:38.916Z,1004.39
2018-09-23T09:01:38.949Z,1004.37
2018-09-23T09:02:39.299Z,1004.40
2018-09-23T09:03:39.058Z,1004.39
2018-09-23T09:04:39.027Z,1004.38
2018-09-23T09:05:39.056Z,1004.34
2018-09-23T09:06:39.081Z,1004.30
2018-09-23T09:07:39.106Z,1004.28
2018-09-23T09:08:39.134Z,1004.26
2018-09-23T09:09:39.161Z,1004.29
2018-09-23T09:10:39.189Z,1004.23
2018-09-23T09:11:39.240Z,1004.22
2018-09-23T09:12:39.245Z,1004.23
2018-09-23T09:13:39.272Z,1004.18
2018-09-23T09:14:39.398Z,1004.14
2018-09-23T09:15:39.325Z,1004.16
2018-09-23T09:16:39.352Z,1004.03
2018-09-23T09:17:39.379Z,1004.03
2018-09-23T09:18:39.533Z,1004.03
2018-09-23T09:19:39.433Z,1004.06
2018-09-23T09:20:39.462Z,1004.05
2018-09-23T09:21:39.492Z,1004.06
2018-09-23T09:22:39.518Z,1004.05
2018-09-23T09:23:39.542Z,1004.05
2018-09-23T09:24:39.577Z,1004.06
2018-09-23T09:25:39.599Z,1004.09
2018-09-23T09:26:39.654Z,1004.06
2018-09-23T09:27:39.657Z,1003.95
2018-09-23T09:28:39.681Z,1003.91
2018-09-23T09:29:39.708Z,1003.84
2018-09-23T09:30:39.734Z,1003.77
2018-09-23T09:31:39.763Z,1003.72
2018-09-23T09:32:39.788Z,1003.68
2018-09-23T09:33:39.817Z,1003.68
2018-09-23T09:34:39.845Z,1003.60
2018-09-23T09:35:39.869Z,1003.57
2018-09-23T09:36:39.900Z,1003.59
2018-09-23T09:37:39.943Z,1003.59
2018-09-23T09:38:39.954Z,1003.51
2018-09-23T09:39:39.984Z,1003.51
2018-09-23T09:40:40.008Z,1003.52
2018-09-23T09:41:40.034Z,1003.58
2018-09-23T09:42:40.062Z,1003.53
2018-09-23T09:43:40.088Z,1003.59
2018-09-23T09:44:40.116Z,1003.64
2018-09-23T09:45:40.145Z,1003.60
2018-09-23T09:46:40.172Z,1003.54
2018-09-23T09:47:40.197Z,1003.48
2018-09-23T09:48:40.228Z,1003.55
2018-09-23T09:49:40.252Z,1003.54
2018-09-23T09:50:40.281Z,1003.56
2018-09-23T09:51:40.306Z,1003.58
2018-09-23T09:52:40.335Z,1003.57
2018-09-23T09:53:40.363Z,1003.59
2018-09-23T09:54:40.391Z,1003.59
2018-09-23T09:55:40.417Z,1003.60
2018-09-23T09:56:40.443Z,1003.60
2018-09-23T09:57:40.472Z,1003.57
2018-09-23T09:58:40.499Z,1003.54
2018-09-23T09:59:40.524Z,1003.50
2018-09-23T10:00:40.552Z,1003.44
2018-09-23T10:01:40.579Z,1003.42
2018-09-23T10:02:40.609Z,1003.41
2018-09-23T10:03:40.652Z,1003.39
2018-09-23T10:04:40.663Z,1003.38
2018-09-23T10:05:40.688Z,1003.36
2018-09-23T10:06:40.721Z,1003.30
2018-09-23T10:07:40.742Z,1003.31
2018-09-23T10:08:40.771Z,1003.37
2018-09-23T10:09:40.797Z,1003.35
2018-09-23T10:10:40.826Z,1003.36
2018-09-23T10:11:40.950Z,1003.40
2018-09-23T10:12:40.881Z,1003.42
2018-09-23T10:13:40.908Z,1003.46
2018-09-23T10:14:40.934Z,1003.47
2018-09-23T10:15:40.964Z,1003.42
2018-09-23T10:16:40.989Z,1003.49
2018-09-23T10:17:41.015Z,1003.43
2018-09-23T10:18:41.042Z,1003.37
2018-09-23T10:19:41.074Z,1003.30
2018-09-23T10:20:41.101Z,1003.19
2018-09-23T10:21:41.126Z,1003.07
2018-09-23T10:22:41.516Z,1002.99
2018-09-23T10:23:41.394Z,1002.95
2018-09-23T10:24:41.208Z,1002.96
2018-09-23T10:25:41.235Z,1003.02
2018-09-23T10:26:41.260Z,1003.03
2018-09-23T10:27:41.289Z,1003.04
2018-09-23T10:28:41.313Z,1003.09
2018-09-23T10:29:41.377Z,1003.06
2018-09-23T10:30:41.369Z,1003.11
2018-09-23T10:31:41.453Z,1003.13
2018-09-23T10:32:41.422Z,1003.19
2018-09-23T10:33:41.451Z,1003.22
2018-09-23T10:34:41.480Z,1003.23
2018-09-23T10:35:41.506Z,1003.24
2018-09-23T10:36:41.531Z,1003.25
2018-09-23T10:37:41.559Z,1003.34
2018-09-23T10:38:41.586Z,1003.33
2018-09-23T10:39:41.614Z,1003.36
2018-09-23T10:40:41.640Z,1003.49
2018-09-23T10:41:41.669Z,1003.49
2018-09-23T10:42:41.695Z,1003.50
2018-09-23T10:43:41.723Z,1003.55
2018-09-23T10:44:41.752Z,1003.68
2018-09-23T10:45:41.777Z,1003.76
2018-09-23T10:46:41.802Z,1003.76
2018-09-23T10:47:41.829Z,1003.77
2018-09-23T10:48:41.856Z,1003.74
2018-09-23T10:49:41.885Z,1003.68
2018-09-23T10:50:41.912Z,1003.68
2018-09-23T10:51:41.939Z,1003.65
2018-09-23T10:52:41.965Z,1003.60
2018-09-23T10:53:41.994Z,1003.58
2018-09-23T10:54:42.021Z,1003.49
2018-09-23T10:55:42.068Z,1003.30
2018-09-23T10:56:42.074Z,1003.24
2018-09-23T10:57:42.102Z,1003.20
2018-09-23T10:58:42.132Z,1003.18
2018-09-23T10:59:42.154Z,1003.26
2018-09-23T11:00:42.183Z,1003.22
2018-09-23T11:01:42.208Z,1003.15
2018-09-23T11:02:42.237Z,1003.17
2018-09-23T11:03:42.317Z,1003.08
2018-09-23T11:04:42.291Z,1003.10
2018-09-23T11:05:42.317Z,1003.09
2018-09-23T11:06:42.346Z,1003.06
2018-09-23T11:07:42.371Z,1002.98
2018-09-23T11:08:42.398Z,1002.95
2018-09-23T11:09:42.432Z,1002.86
2018-09-23T11:10:42.460Z,1002.84
2018-09-23T11:11:42.477Z,1002.76
2018-09-23T11:12:42.510Z,1002.82
2018-09-23T11:13:42.533Z,1002.76
2018-09-23T11:14:42.561Z,1002.75
2018-09-23T11:15:42.588Z,1002.72
2018-09-23T11:16:42.614Z,1002.78
2018-09-23T11:17:42.643Z,1002.82
2018-09-23T11:18:42.667Z,1002.85
2018-09-23T11:19:42.696Z,1002.90
2018-09-23T11:20:42.721Z,1002.99
2018-09-23T11:21:42.751Z,1003.02
2018-09-23T11:22:42.781Z,1003.05
2018-09-23T11:23:42.802Z,1003.10
2018-09-23T11:24:42.889Z,1003.08
2018-09-23T11:25:42.858Z,1003.07
2018-09-23T11:26:42.885Z,1003.02
2018-09-23T11:27:42.909Z,1003.03
2018-09-23T11:28:42.939Z,1003.04
2018-09-23T11:29:42.964Z,1003.08
2018-09-23T11:30:43.058Z,1003.01
2018-09-23T11:31:43.020Z,1002.95
2018-09-23T11:32:43.047Z,1003.01
2018-09-23T11:33:43.072Z,1002.94
2018-09-23T11:34:43.101Z,1003.01
2018-09-23T11:35:43.125Z,1002.97
2018-09-23T11:36:43.153Z,1002.94
2018-09-23T11:37:43.179Z,1002.89
2018-09-23T11:38:43.207Z,1002.83
2018-09-23T11:39:43.239Z,1002.75
2018-09-23T11:40:43.262Z,1002.76
2018-09-23T11:41:43.288Z,1002.64
2018-09-23T11:42:43.361Z,1002.58
2018-09-23T11:43:43.343Z,1002.52
2018-09-23T11:44:43.368Z,1002.43
2018-09-23T11:45:43.398Z,1002.40
2018-09-23T11:46:43.423Z,1002.44
2018-09-23T11:47:43.449Z,1002.42
2018-09-23T11:48:43.479Z,1002.47
2018-09-23T11:49:43.504Z,1002.36
2018-09-23T11:50:43.533Z,1002.31
2018-09-23T11:51:43.557Z,1002.29
2018-09-23T11:52:43.586Z,1002.23
2018-09-23T11:53:43.616Z,1002.19
2018-09-23T11:54:43.639Z,1002.19
2018-09-23T11:55:43.673Z,1002.22
2018-09-23T11:56:43.695Z,1002.17
2018-09-23T11:57:43.726Z,1002.20
2018-09-23T11:58:43.808Z,1002.08
2018-09-23T11:59:43.774Z,1002.14
2018-09-23T12:00:43.803Z,1002.18
2018-09-23T12:01:43.830Z,1002.22
2018-09-23T12:02:43.856Z,1002.28
2018-09-23T12:03:43.885Z,1002.26
2018-09-23T12:04:43.911Z,1002.24
2018-09-23T12:05:43.954Z,1002.31